createdAt,value
2018-03-29T00:00:08.195Z,5.40
2018-03-29T00:02:36.544Z,5.40
2018-03-29T00:05:04.880Z,5.40
2018-03-29T00:07:33.973Z,5.30
2018-03-29T00:10:02.307Z,5.30
2018-03-29T00:12:30.795Z,5.40
2018-03-29T00:14:59.163Z,5.40
2018-03-29T00:17:28.283Z,5.40
2018-03-29T00:19:56.595Z,5.40
2018-03-29T00:22:24.925Z,5.40
2018-03-29T00:24:54.035Z,5.40
2018-03-29T00:27:22.373Z,5.40
2018-03-29T00:29:51.507Z,5.40
2018-03-29T00:32:20.638Z,5.40
2018-03-29T00:34:49.009Z,5.40
2018-03-29T00:37:17.373Z,5.40
2018-03-29T00:39:46.470Z,5.50
2018-03-29T00:42:15.597Z,5.50
2018-03-29T00:44:43.930Z,5.50
2018-03-29T00:47:12.273Z,5.50
2018-03-29T00:49:40.615Z,5.60
2018-03-29T00:52:08.963Z,5.60
2018-03-29T00:54:37.287Z,5.60
2018-03-29T00:57:05.644Z,5.60
2018-03-29T00:59:34.733Z,5.60
2018-03-29T01:02:03.116Z,5.60
2018-03-29T01:04:32.367Z,5.70
2018-03-29T01:07:00.711Z,5.70
2018-03-29T01:09:29.841Z,5.70
2018-03-29T01:11:58.287Z,5.70
2018-03-29T01:14:27.427Z,5.70
2018-03-29T01:16:55.766Z,5.70
2018-03-29T01:19:24.089Z,5.70
2018-03-29T01:21:52.433Z,5.80
2018-03-29T01:24:20.845Z,5.80
2018-03-29T01:26:49.279Z,5.80
2018-03-29T01:29:17.667Z,5.90
2018-03-29T01:31:46.840Z,5.90
2018-03-29T01:34:15.185Z,5.90
2018-03-29T01:36:43.531Z,5.90
2018-03-29T01:39:11.895Z,5.90
2018-03-29T01:41:40.271Z,5.90
2018-03-29T01:44:08.649Z,5.90
2018-03-29T01:46:37.743Z,5.90
2018-03-29T01:49:06.122Z,5.90
2018-03-29T01:51:34.505Z,5.90
2018-03-29T01:54:02.949Z,5.90
2018-03-29T01:56:32.055Z,5.80
2018-03-29T01:59:01.205Z,5.80
2018-03-29T02:01:29.541Z,5.80
2018-03-29T02:03:57.864Z,5.80
2018-03-29T02:06:27.042Z,5.70
2018-03-29T02:08:55.443Z,5.70
2018-03-29T02:11:23.809Z,5.70
2018-03-29T02:13:52.265Z,5.70
2018-03-29T02:16:20.718Z,5.70
2018-03-29T02:18:49.068Z,5.70
2018-03-29T02:21:17.424Z,5.70
2018-03-29T02:23:45.776Z,5.80
2018-03-29T02:26:14.874Z,5.90
2018-03-29T02:28:43.229Z,5.80
2018-03-29T02:31:11.542Z,5.90
2018-03-29T02:33:40.679Z,5.90
2018-03-29T02:36:09.202Z,5.90
2018-03-29T02:38:37.560Z,5.90
2018-03-29T02:41:05.909Z,5.90
2018-03-29T02:43:34.253Z,5.90
2018-03-29T02:46:02.615Z,5.90
2018-03-29T02:48:30.954Z,5.90
2018-03-29T02:51:00.099Z,5.90
2018-03-29T02:53:28.459Z,5.90
2018-03-29T02:55:56.782Z,5.90
2018-03-29T02:58:25.130Z,5.90
2018-03-29T03:00:53.492Z,5.80
2018-03-29T03:03:22.603Z,5.80
2018-03-29T03:05:50.969Z,5.80
2018-03-29T03:08:19.314Z,5.80
2018-03-29T03:10:48.438Z,5.80
2018-03-29T03:13:16.765Z,5.80
2018-03-29T03:15:45.887Z,5.80
2018-03-29T03:18:14.214Z,5.80
2018-03-29T03:20:42.655Z,5.80
2018-03-29T03:23:11.061Z,5.80
2018-03-29T03:25:39.396Z,5.80
2018-03-29T03:28:07.776Z,5.80
2018-03-29T03:30:36.184Z,5.80
2018-03-29T03:33:05.281Z,5.70
2018-03-29T03:35:34.364Z,5.60
2018-03-29T03:38:02.723Z,5.60
2018-03-29T03:40:31.085Z,5.60
2018-03-29T03:42:59.501Z,5.50
2018-03-29T03:45:27.845Z,5.40
2018-03-29T03:47:57.071Z,5.20
2018-03-29T03:50:25.434Z,5.20
2018-03-29T03:52:53.757Z,5.20
2018-03-29T03:55:22.088Z,5.10
2018-03-29T03:57:50.671Z,5.00
2018-03-29T04:00:19.001Z,5.00
2018-03-29T04:02:47.391Z,4.90
2018-03-29T04:05:15.723Z,4.90
2018-03-29T04:07:44.876Z,4.90
2018-03-29T04:10:13.210Z,5.00
2018-03-29T04:12:41.598Z,4.90
2018-03-29T04:15:10.000Z,4.90
2018-03-29T04:17:38.504Z,4.90
2018-03-29T04:20:08.486Z,4.90
2018-03-29T04:22:36.851Z,4.90
2018-03-29T04:25:05.173Z,4.90
2018-03-29T04:27:33.645Z,5.00
2018-03-29T04:30:02.024Z,5.00
2018-03-29T04:32:30.395Z,5.10
2018-03-29T04:34:58.805Z,5.10
2018-03-29T04:37:27.177Z,5.20
2018-03-29T04:39:55.530Z,5.10
2018-03-29T04:42:23.944Z,5.10
2018-03-29T04:44:52.289Z,5.20
2018-03-29T04:47:21.476Z,5.20
2018-03-29T04:49:50.625Z,5.10
2018-03-29T04:52:19.091Z,5.10
2018-03-29T04:54:47.450Z,5.10
2018-03-29T04:57:15.876Z,5.00
2018-03-29T04:59:44.213Z,5.00
2018-03-29T05:02:13.422Z,4.90
2018-03-29T05:04:41.764Z,4.80
2018-03-29T05:07:10.233Z,4.80
2018-03-29T05:09:38.651Z,4.70
2018-03-29T05:12:07.487Z,4.70
2018-03-29T05:14:35.860Z,4.70
2018-03-29T05:17:04.185Z,4.60
2018-03-29T05:19:32.520Z,4.60
2018-03-29T05:22:00.854Z,4.60
2018-03-29T05:24:30.063Z,4.60
2018-03-29T05:26:59.130Z,4.70
2018-03-29T05:29:27.517Z,4.70
2018-03-29T05:31:55.864Z,4.80
2018-03-29T05:34:24.304Z,4.90
2018-03-29T05:36:52.944Z,5.10
2018-03-29T05:39:21.825Z,5.20
2018-03-29T05:41:50.214Z,5.30
2018-03-29T05:44:18.552Z,5.40
2018-03-29T05:46:47.027Z,5.40
2018-03-29T05:49:15.449Z,5.50
2018-03-29T05:51:43.840Z,5.50
2018-03-29T05:54:12.188Z,5.60
2018-03-29T05:56:40.541Z,5.60
2018-03-29T05:59:08.897Z,5.70
2018-03-29T06:01:37.244Z,5.80
2018-03-29T06:04:06.386Z,5.90
2018-03-29T06:06:34.772Z,5.90
2018-03-29T06:09:03.220Z,5.90
2018-03-29T06:11:31.608Z,6.00
2018-03-29T06:14:05.603Z,6.10
2018-03-29T06:16:39.537Z,6.10
2018-03-29T06:19:09.700Z,6.20
2018-03-29T06:21:38.126Z,6.20
2018-03-29T06:24:06.512Z,6.30
2018-03-29T06:26:34.860Z,6.30
2018-03-29T06:29:04.007Z,6.40
2018-03-29T06:31:32.331Z,6.30
2018-03-29T06:34:00.700Z,6.40
2018-03-29T06:36:29.044Z,6.50
2018-03-29T06:38:57.397Z,6.60
2018-03-29T06:41:26.483Z,6.70
2018-03-29T06:43:54.861Z,6.60
2018-03-29T06:46:23.290Z,6.70
2018-03-29T06:48:52.381Z,6.60
2018-03-29T06:51:20.731Z,6.60
2018-03-29T06:53:49.108Z,6.60
2018-03-29T06:56:18.266Z,6.60
2018-03-29T06:58:46.578Z,6.60
2018-03-29T07:01:14.895Z,6.60
2018-03-29T07:03:43.264Z,6.70
2018-03-29T07:06:12.403Z,6.70
2018-03-29T07:08:40.724Z,6.70
2018-03-29T07:11:09.025Z,6.70
2018-03-29T07:13:37.524Z,6.80
2018-03-29T07:16:06.621Z,6.80
2018-03-29T07:18:35.731Z,6.90
2018-03-29T07:21:04.108Z,6.90
2018-03-29T07:23:32.450Z,7.00
2018-03-29T07:26:00.762Z,7.00
2018-03-29T07:28:30.173Z,7.10
2018-03-29T07:30:58.613Z,7.10
2018-03-29T07:33:26.952Z,7.20
2018-03-29T07:35:55.328Z,7.30
2018-03-29T07:38:23.644Z,7.40
2018-03-29T07:40:51.974Z,7.50
2018-03-29T07:43:21.076Z,7.80
2018-03-29T07:45:50.152Z,8.00
2018-03-29T07:48:18.500Z,8.00
2018-03-29T07:50:46.814Z,8.20
2018-03-29T07:53:15.164Z,8.40
2018-03-29T07:55:43.503Z,8.60
2018-03-29T07:58:12.638Z,8.90
2018-03-29T08:00:40.952Z,8.90
2018-03-29T08:03:10.047Z,9.30
2018-03-29T08:05:38.379Z,9.30
2018-03-29T08:08:07.311Z,9.60
2018-03-29T08:10:35.644Z,9.90
2018-03-29T08:13:03.991Z,10.30
2018-03-29T08:15:32.302Z,10.50
2018-03-29T08:18:01.398Z,10.80
2018-03-29T08:20:30.504Z,10.60
